Naponee, Nebraska
Current Conditions -  °F | °C
As of 12:15 PM on Sunday 25 Jan 2015 (Local Time) from KHDE Reporting Station
Clear Clear  
Wind Chill: 36°   Ceiling: Unl
Heat Index: 44°   Visibility: 10mi
Dew Point: 28°   Wind: 23mph
Humidity: 52%   Direction: 330°NNW
Pressure: 30.06"   Gusts: 30mph
Location:  40.08°N, 99.14°W
Report Text: KHDE 251815Z AUTO 33020G26KT 10SM CLR 07/M02 A3006 RMK AO2 T00691024
Loading
Personal Weather Stations






























Interactive Weather Map New forecast layout! Learn more

10-Day Weather Forecast

Advertisements
Track Severe Weather on mobile